Time;durP1;ratioP1;P1;durP2;ratioP2;P2;SDS_P1;SDS_P2;PMS_P1;PMS_P2;Temp;Humidity;BMP_temperature;BMP_pressure;BME280_temperature;BME280_humidity;BME280_pressure;Samples;Min_cycle;Max_cycle;Signal;HPM_P1;HPM_P2
2023/02/21 02:14:16;;;;;;;5.93;3.97;;;;;;;3.51;100.00;98404.81;31065531;28;20433;-78
2023/02/21 02:29:39;;;;;;;13.00;5.43;;;;;;;3.80;100.00;98388.88;31106663;28;20061;-79
2023/02/21 02:44:48;;;;;;;6.83;4.30;;;;;;;4.09;100.00;98352.25;31105176;28;20059;-80
2023/02/21 02:59:50;;;;;;;9.77;4.57;;;;;;;4.11;100.00;98329.16;31083697;28;20109;-78
2023/02/21 03:15:11;;;;;;;14.30;5.07;;;;;;;4.40;100.00;98307.81;31080187;28;20064;-78
2023/02/21 03:30:13;;;;;;;8.37;4.50;;;;;;;4.56;100.00;98287.47;31092716;28;20081;-77
2023/02/21 03:45:16;;;;;;;9.37;5.40;;;;;;;4.74;100.00;98250.91;31076627;28;20080;-78
2023/02/21 04:00:17;;;;;;;10.33;5.77;;;;;;;4.81;100.00;98239.22;31087113;28;20054;-77
2023/02/21 04:15:19;;;;;;;6.50;3.90;;;;;;;5.06;100.00;98250.06;31090138;28;20502;-78
2023/02/21 04:30:21;;;;;;;11.37;4.53;;;;;;;5.24;100.00;98232.69;31060368;28;20059;-75
2023/02/21 04:45:25;;;;;;;7.97;3.87;;;;;;;5.28;100.00;98234.09;31084196;28;20057;-78
2023/02/21 05:00:27;;;;;;;11.40;3.93;;;;;;;5.35;100.00;98222.38;31084734;28;20509;-77
2023/02/21 05:15:30;;;;;;;9.83;5.10;;;;;;;5.45;100.00;98207.84;31127031;28;20104;-76
2023/02/21 05:30:31;;;;;;;14.57;5.13;;;;;;;5.59;100.00;98207.44;31083289;28;20100;-79
2023/02/21 05:45:33;;;;;;;6.73;3.97;;;;;;;5.70;100.00;98213.25;31119781;28;20112;-80
2023/02/21 06:00:35;;;;;;;8.67;3.83;;;;;;;6.03;100.00;98221.13;31098085;28;20049;-77
2023/02/21 06:15:37;;;;;;;8.37;4.20;;;;;;;6.28;100.00;98204.94;31086372;28;20039;-76
2023/02/21 06:30:39;;;;;;;9.77;5.30;;;;;;;6.21;100.00;98183.59;31080200;28;20045;-81
2023/02/21 06:45:41;;;;;;;6.63;3.70;;;;;;;6.19;100.00;98169.81;31113883;28;20066;-80
2023/02/21 07:00:43;;;;;;;8.73;3.70;;;;;;;6.48;100.00;98173.06;31093752;28;20091;-77
2023/02/21 07:15:46;;;;;;;8.03;3.83;;;;;;;6.60;100.00;98192.34;31139248;28;20498;-80
2023/02/21 07:30:48;;;;;;;4.73;3.83;;;;;;;7.08;100.00;98205.28;31089674;28;20045;-85
2023/02/21 07:45:50;;;;;;;6.97;4.13;;;;;;;7.46;100.00;98228.59;31088081;28;20057;-77
2023/02/21 08:00:55;;;;;;;4.73;2.93;;;;;;;12.07;100.00;98231.00;31101969;28;20092;-80
2023/02/21 08:15:57;;;;;;;7.13;2.50;;;;;;;13.26;100.00;98245.56;31075136;28;20052;-79
2023/02/21 08:30:59;;;;;;;4.70;1.70;;;;;;;14.80;100.00;98232.72;31118917;28;20084;-78
2023/02/21 08:46:01;;;;;;;4.77;1.20;;;;;;;15.64;100.00;98241.09;31127092;28;20061;-79
2023/02/21 09:01:03;;;;;;;4.67;1.23;;;;;;;13.39;100.00;98247.94;31122508;28;20543;-75
2023/02/21 09:16:05;;;;;;;15.03;5.50;;;;;;;11.98;100.00;98242.00;31107126;28;20502;-78
2023/02/21 09:31:07;;;;;;;5.80;1.30;;;;;;;12.49;100.00;98230.59;31134185;28;20509;-88
2023/02/21 09:46:17;;;;;;;2.80;1.40;;;;;;;11.76;100.00;98231.56;31155623;28;20081;-88
2023/02/21 10:01:31;;;;;;;4.03;1.43;;;;;;;12.85;100.00;98223.06;31141834;28;20083;-91
2023/02/21 10:16:45;;;;;;;1.50;1.00;;;;;;;12.48;100.00;98220.94;31127161;28;20529;-89
2023/02/21 10:31:51;;;;;;;3.47;1.20;;;;;;;12.32;100.00;98188.81;31120254;28;20125;-84
2023/02/21 10:47:01;;;;;;;3.37;1.40;;;;;;;12.26;100.00;98191.47;31103376;28;20058;-86
2023/02/21 11:02:22;;;;;;;1.97;1.13;;;;;;;10.63;100.00;98226.56;31131504;28;20108;-83
2023/02/21 11:17:28;;;;;;;1.37;0.90;;;;;;;9.51;100.00;98224.81;31116358;28;20052;-90
2023/02/21 11:32:34;;;;;;;1.20;1.10;;;;;;;9.63;100.00;98193.34;31077070;28;20042;-75
2023/02/21 11:47:43;;;;;;;;;;;;;;;10.10;100.00;98175.66;31109986;28;20055;-75
2023/02/21 12:03:19;;;;;;;5.03;1.70;;;;;;;14.27;100.00;98168.69;31087569;28;19921;-75
2023/02/21 12:18:33;;;;;;;2.60;1.53;;;;;;;14.04;100.00;98182.72;31068848;28;20111;-75
2023/02/21 12:33:56;;;;;;;2.27;1.30;;;;;;;15.92;100.00;98184.38;31074296;28;20046;-74
2023/02/21 12:49:25;;;;;;;3.70;1.43;;;;;;;12.64;100.00;98198.59;31097523;28;20057;-75
2023/02/21 13:04:54;;;;;;;5.27;1.80;;;;;;;12.01;100.00;98224.75;31096604;28;20058;-86
2023/02/21 15:04:42;;;;;;;3.00;1.40;;;;;;;7.99;100.00;98198.81;30918265;28;20422;-76
2023/02/21 15:19:44;;;;;;;1.63;1.30;;;;;;;7.91;100.00;98246.19;30937092;28;20055;-77
2023/02/21 15:34:46;;;;;;;7.17;1.80;;;;;;;7.80;100.00;98281.72;30937114;28;20054;-72
2023/02/21 15:49:57;;;;;;;4.87;2.77;;;;;;;7.67;100.00;98313.47;30945454;28;20054;-77
2023/02/21 16:04:59;;;;;;;6.47;2.53;;;;;;;7.34;100.00;98329.28;30873886;28;20101;-75
2023/02/21 16:20:20;;;;;;;2.27;1.70;;;;;;;7.67;100.00;98389.84;30868113;28;20336;-73
2023/02/21 16:35:24;;;;;;;1.97;1.20;;;;;;;7.35;100.00;98433.38;30865837;28;20109;-74
2023/02/21 16:50:30;;;;;;;4.67;1.30;;;;;;;7.31;100.00;98435.44;30862789;28;20125;-74
2023/02/21 17:05:34;;;;;;;;;;;;;;;6.97;100.00;98446.94;30851392;28;20055;-78
2023/02/21 17:20:36;;;;;;;1.10;0.80;;;;;;;6.76;100.00;98454.50;30855333;28;19922;-81
2023/02/21 17:35:38;;;;;;;1.00;0.90;;;;;;;6.41;100.00;98477.13;30871363;28;20047;-81
2023/02/21 17:50:40;;;;;;;1.50;1.30;;;;;;;6.20;100.00;98497.34;30829220;28;20066;-74
2023/02/21 18:05:42;;;;;;;1.03;0.90;;;;;;;6.44;100.00;98522.09;30855461;28;20061;-74
2023/02/21 18:20:44;;;;;;;1.03;0.70;;;;;;;6.32;100.00;98530.91;30834455;28;20051;-74
2023/02/21 18:35:46;;;;;;;3.23;1.03;;;;;;;6.07;100.00;98558.53;30820823;28;20039;-77
2023/02/21 18:50:49;;;;;;;1.03;0.97;;;;;;;6.05;100.00;98574.34;30817832;28;20559;-74
2023/02/21 19:05:52;;;;;;;1.23;0.97;;;;;;;5.88;100.00;98584.38;30831628;28;20098;-75
2023/02/21 19:20:54;;;;;;;4.90;2.00;;;;;;;5.89;100.00;98593.25;30844442;28;20459;-77
2023/02/21 19:35:55;;;;;;;4.83;2.10;;;;;;;5.97;100.00;98614.16;30850755;28;20109;-75
2023/02/21 19:50:57;;;;;;;3.10;1.70;;;;;;;6.07;100.00;98609.72;30820511;28;20058;-76
2023/02/21 20:06:02;;;;;;;5.63;2.20;;;;;;;6.12;100.00;98614.59;30845162;28;20047;-80
2023/02/21 20:21:04;;;;;;;3.23;2.13;;;;;;;5.95;100.00;98632.69;30866616;28;20109;-77
2023/02/21 20:36:06;;;;;;;6.77;2.27;;;;;;;5.71;100.00;98634.75;30849731;28;20051;-81
2023/02/21 20:51:08;;;;;;;12.43;3.83;;;;;;;5.63;100.00;98630.75;30818458;28;20587;-79
2023/02/21 21:06:10;;;;;;;3.17;1.70;;;;;;;5.64;100.00;98632.25;30864826;28;20105;-79
2023/02/21 21:21:12;;;;;;;9.50;1.83;;;;;;;6.07;100.00;98642.78;30851686;28;20062;-76
2023/02/21 21:36:14;;;;;;;4.77;1.50;;;;;;;6.42;100.00;98651.91;30810339;28;20042;-75
2023/02/21 21:51:16;;;;;;;2.07;1.13;;;;;;;6.33;100.00;98675.25;30846697;28;20051;-76
2023/02/21 22:06:18;;;;;;;4.87;1.67;;;;;;;6.22;100.00;98680.91;30846713;28;20148;-77
2023/02/21 22:21:21;;;;;;;5.07;1.83;;;;;;;6.12;100.00;98715.03;30819012;28;20090;-76
2023/02/21 22:36:23;;;;;;;3.43;2.27;;;;;;;6.11;100.00;98723.53;30834423;28;20138;-76
2023/02/21 22:51:26;;;;;;;6.03;1.50;;;;;;;6.11;100.00;98761.25;30820867;28;20063;-75
2023/02/21 23:06:28;;;;;;;2.90;1.10;;;;;;;6.03;100.00;98803.75;30828263;28;20058;-77
2023/02/21 23:21:30;;;;;;;4.27;1.53;;;;;;;5.86;100.00;98812.97;30877502;28;20054;-77
2023/02/21 23:36:32;;;;;;;2.43;1.60;;;;;;;5.88;100.00;98855.63;30846880;28;20102;-75
2023/02/21 23:51:36;;;;;;;1.40;1.30;;;;;;;5.83;100.00;98898.03;30833050;28;20058;-77
